Flight Track Log - Related Links

Times and Time Zones

All times are in EDT time to prevent confusion due to time zone crossing. See the AMX203 flight status page for this flight to view local times or setup timezone preferences in your user account.

Time Position Orientation Groundspeed Altitude Reporting Facility
EDT Latitude Longitude Course Direction KTS MPH feet Rate Location/Type
Tue 08:59:00 PM 25.2054 -103.1399 146° Southeast  Level Estimated
Tue 09:00:00 PM 25.1145 -103.0725 146° Southeast  Level Estimated
Tue 09:01:00 PM 25.0237 -103.0052 146° Southeast  Level Estimated
Tue 09:02:00 PM 24.9328 -102.9380 146° Southeast  Level Estimated
Tue 09:03:00 PM 24.8419 -102.8709 146° Southeast  Level Estimated
Tue 09:04:00 PM 24.7510 -102.8039 146° Southeast  Level Estimated
Tue 09:05:00 PM 24.6600 -102.7370 146° Southeast  Level Estimated
Tue 09:06:00 PM 24.5690 -102.6701 146° Southeast  Level Estimated
Tue 09:07:00 PM 24.4780 -102.6034 146° Southeast  Level Estimated
Tue 09:08:00 PM 24.3870 -102.5368 146° Southeast  Level Estimated
Tue 09:09:00 PM 24.2959 -102.4703 146° Southeast  Level Estimated
Tue 09:10:00 PM 24.2048 -102.4038 146° Southeast  Level Estimated
Tue 09:11:00 PM 24.1137 -102.3375 146° Southeast  Level Estimated
Tue 09:12:00 PM 24.0225 -102.2712 146° Southeast  Level Estimated
Tue 09:13:00 PM 23.9313 -102.2051 146° Southeast  Level Estimated
Tue 09:14:00 PM 23.8401 -102.1391 146° Southeast  Level Estimated
Tue 09:15:00 PM 23.7488 -102.0731 147° Southeast  Level Estimated
Tue 09:16:00 PM 23.6576 -102.0072 147° Southeast  Level Estimated
Tue 09:17:00 PM 23.5663 -101.9414 147° Southeast  Level Estimated
Tue 09:18:00 PM 23.4749 -101.8757 147° Southeast  Level Estimated
Tue 09:19:00 PM 23.3836 -101.8102 147° Southeast  Level Estimated
Tue 09:20:00 PM 23.2922 -101.7446 147° Southeast  Level Estimated
Tue 09:21:00 PM 23.2008 -101.6792 147° Southeast  Level Estimated
Tue 09:22:00 PM 23.1093 -101.6139 147° Southeast  Level Estimated
Tue 09:23:00 PM 23.0179 -101.5487 147° Southeast  Level Estimated
Tue 09:24:00 PM 22.9264 -101.4835 147° Southeast  Level Estimated
Tue 09:25:00 PM 22.8348 -101.4184 147° Southeast  Level Estimated
Tue 09:26:00 PM 22.7433 -101.3535 147° Southeast  Level Estimated
Tue 09:27:00 PM 22.6517 -101.2886 147° Southeast  Level Estimated
Tue 09:28:00 PM 22.5601 -101.2238 147° Southeast  Level Estimated
Tue 09:29:00 PM 22.4685 -101.1591 147° Southeast  Level Estimated
Tue 09:30:00 PM 22.3769 -101.0945 147° Southeast  Level Estimated
Tue 09:31:00 PM 22.2852 -101.0299 147° Southeast  Level Estimated
Tue 09:32:00 PM 22.1935 -100.9654 147° Southeast  Level Estimated
Tue 09:33:00 PM 22.1017 -100.9011 147° Southeast  Level Estimated
Tue 09:34:00 PM 22.0100 -100.8368 147° Southeast  Level Estimated
Tue 09:35:00 PM 21.9182 -100.7726 147° Southeast  Level Estimated
Tue 09:36:00 PM 21.8264 -100.7084 147° Southeast  Level Estimated
Tue 09:37:00 PM 21.7346 -100.6444 147° Southeast  Level Estimated
Tue 09:38:00 PM 21.6427 -100.5804 147° Southeast  Level Estimated
Tue 09:39:00 PM 21.5508 -100.5166 147° Southeast  Level Estimated
Tue 09:40:00 PM 21.4590 -100.4528 147° Southeast  Level Estimated
Tue 09:41:00 PM 21.3670 -100.3890 147° Southeast  Level Estimated
Tue 09:42:00 PM 21.2751 -100.3254 147° Southeast  Level Estimated
Tue 09:43:00 PM 21.1831 -100.2618 147° Southeast  Level Estimated
Tue 09:44:00 PM 21.0911 -100.1984 147° Southeast  Level Estimated
Tue 09:45:00 PM 20.9991 -100.1350 147° Southeast  Level Estimated
Tue 09:46:00 PM 20.9070 -100.0716 147° Southeast  Level Estimated
Tue 09:47:00 PM 20.8150 -100.0084 147° Southeast  Level Estimated
Tue 09:48:00 PM 20.7229 -99.9452 147° Southeast  Level Estimated
Tue 09:49:00 PM 20.6308 -99.8821 147° Southeast  Level Estimated
Tue 09:50:00 PM 20.5386 -99.8191 147° Southeast  Level Estimated
Tue 09:51:00 PM 20.4465 -99.7562 147° Southeast  Level Estimated
Tue 09:52:00 PM 20.3543 -99.6933 147° Southeast  Level Estimated
Tue 09:53:00 PM 20.2621 -99.6305 147° Southeast  Level Estimated
Tue 09:54:00 PM 20.1699 -99.5678 147° Southeast  Level Estimated
Tue 09:55:00 PM 20.0776 -99.5052 147° Southeast  Level Estimated
Tue 09:56:00 PM 19.9853 -99.4426 147° Southeast  Level Estimated
Tue 09:57:00 PM 19.8930 -99.3801 148° Southeast  Level Estimated
Tue 09:58:00 PM 19.8007 -99.3177 148° Southeast  Level Estimated
Tue 09:59:00 PM 19.7084 -99.2553 148° Southeast  Level Estimated
Tue 10:00:00 PM 19.6161 -99.1930 148° Southeast  Level Estimated
Tue 10:01:00 PM 19.5237 -99.1309 148° Southeast  Level Estimated
Tue 10:02:00 PM 19.4363 -99.0721 148° Southeast  Level Estimated
Tue 10:03:00 PM 19.4363 -99.0721 North  Level Estimated
Tue 10:04:00 PM 19.4363 -99.0721 North  Level Estimated
Tue 10:05:00 PM 19.4363 -99.0721 North  Level Estimated
Tue 10:06:00 PM 19.4363 -99.0721 North  Level Estimated
Tue 10:07:00 PM 19.4363 -99.0721 North  Level Estimated
Tue 10:08:00 PM 19.4363 -99.0721 North  Level Estimated
Tue 10:09:00 PM 19.4363 -99.0721 North  Level Estimated
Tue 10:10:00 PM 19.4363 -99.0721 North  Level Estimated
Tue 10:11:00 PM 19.4363 -99.0721 North  Level Estimated
Tue 10:12:00 PM 19.4363 -99.0721 North  Level Estimated
Tue 10:13:00 PM 19.4363 -99.0721 North  Level Estimated
Tue 10:14:00 PM 19.4363 -99.0721 North  Level Estimated
Tue 10:15:00 PM 19.4363 -99.0721 North  Level Estimated
Tue 10:16:00 PM 19.4363 -99.0721 North  Level Estimated
Tue 10:17:00 PM 19.4363 -99.0721 North  Level Estimated
Tue 10:18:00 PM 19.4363 -99.0721 North  Level Estimated

Login

Don't have an account? Register now (free) for customized features, flight alerts, and more!